Pleasant Grove, Texas
Current Conditions -  °F | °C
As of 10:35 AM on Monday 24 Nov 2014 (Local Time) from KRFI Reporting Station
Clear Clear  
Wind Chill: 56°   Ceiling: Unl
Heat Index: 56°   Visibility: 10mi
Dew Point: 33°   Wind: 7mph
Humidity: 41%   Direction: 310°NW
Pressure: 30.06"   Gusts: NA
Location:  32.1449°N, 94.7416°W
Report Text: KRFI 241635Z AUTO 31006KT 10SM CLR 13/01 A3006 RMK AO2 T01340005
Loading
Personal Weather Stations






























Interactive Weather Map New forecast layout! Learn more

10-Day Weather Forecast

Advertisements
Track Severe Weather on mobile